createdAt,value
2018-09-06T00:02:00.290Z,17.10
2018-09-06T00:04:27.468Z,13.30
2018-09-06T00:06:54.647Z,18.33
2018-09-06T00:09:21.815Z,13.30
2018-09-06T00:11:49.005Z,12.73
2018-09-06T00:14:16.178Z,19.67
2018-09-06T00:16:43.381Z,12.67
2018-09-06T00:19:10.536Z,14.43
2018-09-06T00:21:37.720Z,17.63
2018-09-06T00:24:04.895Z,17.93
2018-09-06T00:26:32.086Z,13.37
2018-09-06T00:28:59.256Z,16.00
2018-09-06T00:31:26.440Z,14.10
2018-09-06T00:33:53.615Z,12.90
2018-09-06T00:36:20.808Z,12.60
2018-09-06T00:38:47.967Z,12.90
2018-09-06T00:41:15.166Z,15.50
2018-09-06T00:43:42.331Z,14.17
2018-09-06T00:46:09.515Z,14.27
2018-09-06T00:48:36.718Z,12.40
2018-09-06T00:51:03.910Z,12.60
2018-09-06T00:53:31.115Z,14.27
2018-09-06T00:55:58.269Z,13.57
2018-09-06T00:58:25.447Z,15.67
2018-09-06T01:00:52.615Z,12.63
2018-09-06T01:03:19.796Z,13.43
2018-09-06T01:05:46.955Z,18.03
2018-09-06T01:08:14.122Z,11.97
2018-09-06T01:10:41.295Z,17.20
2018-09-06T01:13:08.485Z,12.50
2018-09-06T01:15:35.647Z,15.00
2018-09-06T01:18:02.842Z,14.63
2018-09-06T01:23:03.750Z,14.47
2018-09-06T01:25:35.231Z,13.33
2018-09-06T01:28:02.404Z,19.70
2018-09-06T01:30:29.567Z,13.00
2018-09-06T01:32:56.743Z,14.17
2018-09-06T01:35:23.899Z,13.60
2018-09-06T01:37:51.074Z,13.67
2018-09-06T01:40:18.236Z,13.50
2018-09-06T01:42:45.419Z,20.73
2018-09-06T01:45:12.605Z,16.60
2018-09-06T01:47:39.786Z,13.33
2018-09-06T01:50:06.963Z,17.33
2018-09-06T01:52:34.145Z,14.43
2018-09-06T01:55:01.305Z,17.53
2018-09-06T01:57:28.479Z,14.00
2018-09-06T01:59:55.634Z,15.17
2018-09-06T02:02:22.823Z,16.73
2018-09-06T02:04:49.978Z,13.97
2018-09-06T02:07:17.146Z,15.77
2018-09-06T02:09:44.311Z,15.43
2018-09-06T02:12:11.471Z,14.63
2018-09-06T02:14:38.663Z,17.00
2018-09-06T02:17:05.825Z,15.70
2018-09-06T02:19:33.000Z,15.30
2018-09-06T02:22:00.171Z,17.20
2018-09-06T02:24:27.419Z,15.63
2018-09-06T02:26:54.531Z,16.70
2018-09-06T02:29:21.979Z,16.40
2018-09-06T02:31:49.135Z,16.43
2018-09-06T02:34:16.303Z,15.40
2018-09-06T02:36:43.454Z,15.80
2018-09-06T02:39:11.364Z,15.27
2018-09-06T02:41:38.574Z,16.03
2018-09-06T02:44:06.036Z,14.80
2018-09-06T02:46:33.195Z,16.30
2018-09-06T02:49:00.369Z,14.20
2018-09-06T02:51:27.523Z,15.83
2018-09-06T02:53:54.769Z,16.47
2018-09-06T02:56:21.875Z,15.83
2018-09-06T02:58:49.054Z,15.90
2018-09-06T03:01:16.229Z,16.60
2018-09-06T03:03:43.416Z,15.03
2018-09-06T03:06:10.569Z,17.17
2018-09-06T03:08:37.779Z,15.43
2018-09-06T03:12:10.932Z,17.10
2018-09-06T03:14:38.136Z,14.53
2018-09-06T03:17:05.295Z,15.83
2018-09-06T03:19:32.474Z,16.20
2018-09-06T03:21:59.631Z,14.80
2018-09-06T03:24:26.854Z,13.83
2018-09-06T03:26:54.025Z,15.83
2018-09-06T03:29:21.195Z,14.20
2018-09-06T03:31:48.362Z,15.43
2018-09-06T03:34:15.534Z,17.97
2018-09-06T03:36:42.699Z,15.13
2018-09-06T03:39:10.251Z,15.10
2018-09-06T03:41:37.695Z,15.23
2018-09-06T03:44:05.278Z,20.60
2018-09-06T03:46:32.446Z,17.50
2018-09-06T03:48:59.621Z,17.10
2018-09-06T03:51:26.783Z,23.10
2018-09-06T03:53:53.971Z,15.73
2018-09-06T03:56:21.123Z,19.63
2018-09-06T03:58:48.300Z,17.83
2018-09-06T04:01:15.450Z,18.90
2018-09-06T04:03:42.637Z,21.77
2018-09-06T04:06:09.793Z,18.07
2018-09-06T04:11:10.654Z,20.10
2018-09-06T04:13:37.831Z,18.27
2018-09-06T04:16:05.168Z,18.10
2018-09-06T04:18:32.416Z,19.57
2018-09-06T04:20:59.521Z,20.10
2018-09-06T04:23:26.719Z,22.43
2018-09-06T04:25:53.926Z,22.70
2018-09-06T04:28:22.717Z,24.10
2018-09-06T04:30:49.983Z,21.77
2018-09-06T04:33:18.171Z,22.87
2018-09-06T04:35:45.346Z,25.63
2018-09-06T04:38:12.506Z,21.63
2018-09-06T04:40:39.751Z,20.57
2018-09-06T04:43:06.926Z,23.17
2018-09-06T04:45:34.111Z,20.00
2018-09-06T04:48:01.299Z,22.47
2018-09-06T04:50:28.483Z,22.70
2018-09-06T04:52:55.640Z,22.07
2018-09-06T04:55:22.853Z,24.53
2018-09-06T04:57:50.009Z,21.23
2018-09-06T05:02:51.084Z,20.87
2018-09-06T05:05:18.264Z,21.10
2018-09-06T05:07:45.434Z,19.27
2018-09-06T05:10:12.608Z,24.23
2018-09-06T05:12:39.770Z,21.73
2018-09-06T05:15:06.990Z,20.77
2018-09-06T05:17:34.181Z,20.83
2018-09-06T05:20:08.056Z,18.60
2018-09-06T05:22:35.275Z,20.50
2018-09-06T05:25:02.539Z,20.00
2018-09-06T05:27:29.714Z,23.60
2018-09-06T05:29:56.915Z,19.87
2018-09-06T05:32:24.087Z,18.67
2018-09-06T05:34:55.375Z,27.30
2018-09-06T05:37:22.650Z,21.20
2018-09-06T05:39:49.845Z,23.10
2018-09-06T05:42:17.020Z,21.47
2018-09-06T05:44:44.228Z,20.30
2018-09-06T05:47:11.444Z,21.17
2018-09-06T05:49:38.600Z,21.90
2018-09-06T05:52:05.783Z,22.37
2018-09-06T05:54:32.975Z,27.20
2018-09-06T05:57:00.747Z,24.27
2018-09-06T05:59:27.979Z,22.90
2018-09-06T06:01:55.140Z,23.73
2018-09-06T06:04:22.310Z,23.93
2018-09-06T06:06:49.495Z,22.67
2018-09-06T06:09:16.665Z,28.17
2018-09-06T06:11:43.893Z,38.93
2018-09-06T06:14:11.042Z,37.20
2018-09-06T06:16:38.239Z,45.33
2018-09-06T06:19:05.411Z,53.33
2018-09-06T06:21:32.598Z,48.43
2018-09-06T06:23:59.776Z,38.43
2018-09-06T06:26:26.970Z,39.40
2018-09-06T06:28:54.143Z,37.73
2018-09-06T06:31:21.337Z,31.90
2018-09-06T06:33:48.504Z,29.77
2018-09-06T06:36:15.688Z,33.53
2018-09-06T06:38:42.867Z,35.23
2018-09-06T06:41:10.066Z,33.40
2018-09-06T06:43:37.247Z,32.70
2018-09-06T06:46:04.482Z,32.83
2018-09-06T06:48:31.655Z,33.83
2018-09-06T06:50:58.840Z,31.47
2018-09-06T06:53:26.027Z,28.40
2018-09-06T06:55:53.217Z,34.20
2018-09-06T06:58:20.383Z,27.77
2018-09-06T07:00:47.576Z,34.63
2018-09-06T07:03:15.005Z,27.37
2018-09-06T07:05:42.679Z,27.40
2018-09-06T07:08:10.325Z,28.50
2018-09-06T07:10:37.555Z,36.33
2018-09-06T07:13:04.734Z,26.23
2018-09-06T07:15:31.949Z,29.07
2018-09-06T07:17:59.115Z,28.70
2018-09-06T07:20:26.310Z,27.90
2018-09-06T07:22:53.480Z,27.80
2018-09-06T07:25:20.671Z,31.10
2018-09-06T07:27:47.873Z,38.90
2018-09-06T07:30:15.052Z,34.73
2018-09-06T07:32:42.260Z,35.43
2018-09-06T07:35:09.470Z,35.30
2018-09-06T07:37:36.647Z,44.30
2018-09-06T07:40:03.865Z,37.30
2018-09-06T07:42:31.048Z,35.87
2018-09-06T07:44:58.219Z,41.73
2018-09-06T07:47:25.431Z,41.10
2018-09-06T07:49:52.605Z,38.53
2018-09-06T07:52:19.815Z,41.70
2018-09-06T07:54:46.971Z,40.70
2018-09-06T07:57:14.167Z,34.47
2018-09-06T07:59:41.338Z,33.87
2018-09-06T08:02:08.534Z,39.67
2018-09-06T08:04:35.707Z,27.60
2018-09-06T08:07:02.886Z,30.90
2018-09-06T08:09:30.058Z,31.00
2018-09-06T08:11:57.267Z,25.77
2018-09-06T08:14:24.531Z,24.23
2018-09-06T08:16:51.730Z,23.30
2018-09-06T08:19:18.904Z,27.80
2018-09-06T08:21:46.091Z,22.37
2018-09-06T08:24:13.276Z,22.90
2018-09-06T08:26:40.463Z,25.73
2018-09-06T08:29:07.643Z,21.27
2018-09-06T08:31:34.843Z,18.10
2018-09-06T08:34:02.112Z,18.13
2018-09-06T08:36:29.302Z,17.73
2018-09-06T08:38:56.474Z,17.97
2018-09-06T08:41:23.664Z,21.00
2018-09-06T08:43:51.066Z,18.60
2018-09-06T08:46:18.257Z,20.60
2018-09-06T08:48:45.542Z,18.50
2018-09-06T08:51:12.750Z,18.47
2018-09-06T08:53:39.937Z,16.50
2018-09-06T08:56:07.123Z,21.20
2018-09-06T08:58:34.381Z,16.97
2018-09-06T09:01:06.870Z,17.77
2018-09-06T09:03:34.096Z,16.50
2018-09-06T09:06:01.318Z,16.60
2018-09-06T09:08:28.589Z,16.73
2018-09-06T09:10:55.685Z,19.80
2018-09-06T09:13:22.891Z,18.87
2018-09-06T09:15:50.072Z,15.57
2018-09-06T09:18:17.294Z,16.80
2018-09-06T09:20:44.482Z,16.10
2018-09-06T09:23:11.699Z,17.73
2018-09-06T09:25:38.914Z,16.50
2018-09-06T09:28:06.098Z,19.03
2018-09-06T09:30:33.359Z,16.63
2018-09-06T09:33:00.497Z,16.37
2018-09-06T09:35:27.662Z,14.90
2018-09-06T09:37:54.865Z,16.77
2018-09-06T09:40:22.034Z,20.40
2018-09-06T09:42:49.243Z,17.70
2018-09-06T09:45:16.432Z,15.93
2018-09-06T09:47:43.611Z,17.50
2018-09-06T09:52:37.982Z,17.33
2018-09-06T09:55:05.191Z,20.10
2018-09-06T09:57:32.416Z,18.97
2018-09-06T09:59:59.593Z,20.60
2018-09-06T10:02:32.298Z,18.17
2018-09-06T10:05:04.859Z,16.73
2018-09-06T10:07:37.561Z,16.43
2018-09-06T10:10:04.764Z,18.47
2018-09-06T10:12:31.963Z,17.00
2018-09-06T10:14:59.143Z,17.27
2018-09-06T10:17:26.342Z,18.53
2018-09-06T10:19:53.513Z,16.13
2018-09-06T10:22:20.710Z,16.70
2018-09-06T10:24:47.895Z,16.37
2018-09-06T10:27:15.196Z,16.60
2018-09-06T10:29:42.383Z,15.47
2018-09-06T10:32:09.610Z,16.07
2018-09-06T10:34:36.880Z,16.60
2018-09-06T10:37:04.050Z,17.33
2018-09-06T10:39:31.267Z,17.37
2018-09-06T10:41:58.467Z,18.13
2018-09-06T10:44:25.681Z,16.43
2018-09-06T10:46:52.857Z,18.30
2018-09-06T10:49:20.084Z,17.30
2018-09-06T10:51:47.285Z,19.30
2018-09-06T10:54:14.466Z,17.00
2018-09-06T10:56:41.686Z,17.53
2018-09-06T10:59:08.882Z,17.27
2018-09-06T11:01:36.105Z,20.10
2018-09-06T11:04:03.317Z,17.47
2018-09-06T11:06:30.494Z,20.67
2018-09-06T11:08:57.731Z,17.83
2018-09-06T11:11:24.900Z,16.03
2018-09-06T11:13:52.105Z,20.87
2018-09-06T11:16:19.748Z,27.27
2018-09-06T11:18:46.936Z,24.40
2018-09-06T11:21:14.157Z,27.07
2018-09-06T11:23:41.328Z,24.50
2018-09-06T11:26:08.512Z,28.00
2018-09-06T11:28:35.819Z,25.77
2018-09-06T11:31:02.990Z,26.10
2018-09-06T11:33:30.207Z,26.80
2018-09-06T11:35:57.391Z,26.87
2018-09-06T11:38:24.611Z,23.97
2018-09-06T11:40:51.802Z,25.10
2018-09-06T11:43:18.987Z,29.47
2018-09-06T11:45:46.155Z,27.70
2018-09-06T11:48:13.394Z,27.97
2018-09-06T11:50:40.610Z,27.67
2018-09-06T11:53:07.828Z,23.77
2018-09-06T11:55:35.015Z,26.77
2018-09-06T11:58:02.238Z,29.20
2018-09-06T12:00:29.675Z,29.67
2018-09-06T12:02:56.927Z,25.53
2018-09-06T12:05:24.134Z,25.30
2018-09-06T12:07:51.485Z,30.10
2018-09-06T12:10:18.998Z,25.87
2018-09-06T12:12:46.186Z,27.20
2018-09-06T12:15:13.387Z,24.73
2018-09-06T12:17:40.563Z,29.93
2018-09-06T12:20:07.771Z,26.90
2018-09-06T12:22:34.944Z,24.50
2018-09-06T12:25:02.181Z,26.63
2018-09-06T12:27:29.376Z,25.93
2018-09-06T12:29:56.579Z,26.83
2018-09-06T12:32:23.770Z,27.40
2018-09-06T12:34:50.971Z,29.30
2018-09-06T12:37:18.138Z,24.37
2018-09-06T12:39:46.144Z,29.97
2018-09-06T12:42:13.483Z,24.70
2018-09-06T12:44:41.068Z,26.47
2018-09-06T12:47:09.567Z,26.63
2018-09-06T12:49:36.891Z,25.93
2018-09-06T12:52:04.019Z,25.87
2018-09-06T12:54:31.933Z,25.90
2018-09-06T12:57:30.345Z,24.20
2018-09-06T12:59:57.540Z,21.53
2018-09-06T13:02:24.801Z,24.10
2018-09-06T13:04:52.179Z,27.23
2018-09-06T13:07:19.354Z,25.20
2018-09-06T13:09:47.227Z,27.50
2018-09-06T13:12:14.699Z,29.43
2018-09-06T13:14:42.578Z,26.07
2018-09-06T13:17:09.929Z,24.43
2018-09-06T13:19:37.188Z,26.83
2018-09-06T13:22:06.179Z,30.70
2018-09-06T13:24:34.172Z,22.37
2018-09-06T13:27:01.360Z,26.50
2018-09-06T13:29:28.563Z,28.93
2018-09-06T13:31:55.752Z,27.03
2018-09-06T13:34:22.938Z,28.00
2018-09-06T13:36:50.118Z,24.87
2018-09-06T13:39:17.315Z,22.60
2018-09-06T13:41:44.487Z,33.40
2018-09-06T13:44:11.670Z,25.60
2018-09-06T13:46:38.851Z,24.47
2018-09-06T13:49:06.278Z,28.00
2018-09-06T13:51:33.456Z,25.70
2018-09-06T13:54:00.689Z,24.23
2018-09-06T13:56:27.861Z,27.07
2018-09-06T13:58:55.059Z,25.13
2018-09-06T14:01:22.246Z,22.83
2018-09-06T14:03:49.430Z,32.03
2018-09-06T14:06:16.709Z,24.93
2018-09-06T14:08:43.907Z,23.63
2018-09-06T14:11:11.120Z,26.57
2018-09-06T14:13:38.309Z,21.67
2018-09-06T14:16:05.544Z,23.87
2018-09-06T14:18:32.739Z,21.37
2018-09-06T14:20:59.998Z,25.50
2018-09-06T14:23:27.164Z,20.47
2018-09-06T14:25:54.352Z,24.17
2018-09-06T14:28:21.534Z,21.60
2018-09-06T14:30:48.736Z,21.17
2018-09-06T14:33:15.907Z,20.20
2018-09-06T14:35:43.105Z,19.90
2018-09-06T14:38:10.289Z,21.40
2018-09-06T14:40:37.474Z,22.60
2018-09-06T14:43:05.150Z,25.50
2018-09-06T14:45:32.371Z,23.00
2018-09-06T14:47:59.536Z,24.00
2018-09-06T14:50:26.823Z,25.70
2018-09-06T14:52:54.058Z,21.63
2018-09-06T14:55:21.253Z,21.93
2018-09-06T14:57:48.455Z,28.50
2018-09-06T15:00:15.949Z,21.53
2018-09-06T15:02:43.139Z,19.90
2018-09-06T15:05:10.327Z,20.40
2018-09-06T15:07:37.507Z,21.63
2018-09-06T15:10:04.954Z,21.33
2018-09-06T15:12:32.124Z,22.40
2018-09-06T15:14:59.311Z,22.77
2018-09-06T15:17:26.492Z,21.50
2018-09-06T15:19:53.730Z,26.73
2018-09-06T15:22:20.870Z,22.30
2018-09-06T15:24:48.095Z,24.83
2018-09-06T15:27:15.266Z,22.47
2018-09-06T15:29:42.476Z,23.03
2018-09-06T15:32:09.649Z,19.93
2018-09-06T15:34:36.827Z,23.70
2018-09-06T15:37:04.032Z,18.77
2018-09-06T15:39:31.202Z,20.33
2018-09-06T15:41:58.385Z,22.60
2018-09-06T15:44:25.560Z,19.27
2018-09-06T15:46:52.750Z,22.20
2018-09-06T15:49:19.931Z,18.67
2018-09-06T15:51:47.120Z,19.30
2018-09-06T15:54:14.294Z,21.53
2018-09-06T15:56:41.516Z,20.00
2018-09-06T15:59:08.698Z,17.80
2018-09-06T16:01:35.904Z,20.60
2018-09-06T16:04:03.106Z,19.80
2018-09-06T16:06:30.289Z,18.30
2018-09-06T16:08:57.464Z,17.70
2018-09-06T16:11:24.672Z,16.67
2018-09-06T16:13:51.856Z,16.40
2018-09-06T16:16:19.038Z,17.73
2018-09-06T16:18:46.210Z,14.90
2018-09-06T16:21:13.443Z,14.97
2018-09-06T16:23:47.155Z,16.87
2018-09-06T16:26:14.360Z,14.17
2018-09-06T16:28:41.527Z,21.23
2018-09-06T16:31:08.727Z,16.67
2018-09-06T16:33:35.904Z,17.93
2018-09-06T16:36:03.102Z,15.80
2018-09-06T16:38:30.270Z,19.93
2018-09-06T16:40:57.480Z,17.90
2018-09-06T16:43:24.656Z,14.87
2018-09-06T16:45:51.841Z,17.87
2018-09-06T16:48:19.023Z,15.47
2018-09-06T16:50:46.212Z,15.67
2018-09-06T16:53:13.374Z,15.77
2018-09-06T16:55:40.566Z,15.67
2018-09-06T16:58:07.726Z,16.10
2018-09-06T17:00:41.398Z,16.60
2018-09-06T17:03:08.550Z,16.90
2018-09-06T17:05:35.738Z,14.60
2018-09-06T17:08:02.908Z,14.40
2018-09-06T17:10:30.119Z,14.90
2018-09-06T17:12:57.326Z,15.33
2018-09-06T17:15:24.508Z,14.73
2018-09-06T17:17:51.719Z,14.90
2018-09-06T17:20:18.908Z,14.63
2018-09-06T17:22:46.139Z,16.80
2018-09-06T17:25:13.331Z,15.57
2018-09-06T17:27:40.524Z,15.57
2018-09-06T17:30:07.707Z,16.47
2018-09-06T17:32:35.193Z,18.53
2018-09-06T17:35:02.791Z,18.73
2018-09-06T17:37:29.961Z,18.90
2018-09-06T17:39:57.618Z,17.90
2018-09-06T17:42:24.831Z,20.37
2018-09-06T17:44:52.264Z,19.10
2018-09-06T17:47:19.439Z,21.13
2018-09-06T17:49:46.643Z,20.73
2018-09-06T17:52:13.841Z,19.87
2018-09-06T17:54:41.012Z,21.67
2018-09-06T17:57:08.199Z,26.97
2018-09-06T17:59:35.395Z,24.33
2018-09-06T18:02:02.605Z,22.57
2018-09-06T18:04:29.786Z,19.30
2018-09-06T18:06:56.976Z,25.77
2018-09-06T18:09:24.185Z,22.17
2018-09-06T18:11:51.415Z,23.57
2018-09-06T18:14:18.591Z,24.67
2018-09-06T18:16:45.769Z,25.00
2018-09-06T18:19:12.974Z,25.53
2018-09-06T18:21:40.190Z,25.27
2018-09-06T18:24:07.403Z,23.57
2018-09-06T18:26:34.599Z,26.60
2018-09-06T18:29:01.793Z,22.47
2018-09-06T18:31:29.051Z,23.87
2018-09-06T18:33:56.303Z,27.00
2018-09-06T18:36:23.522Z,27.57
2018-09-06T18:38:50.935Z,29.83
2018-09-06T18:41:18.154Z,31.53
2018-09-06T18:43:45.444Z,35.60
2018-09-06T18:46:12.563Z,36.10
2018-09-06T18:48:39.960Z,38.50
2018-09-06T18:51:07.149Z,36.60
2018-09-06T18:53:34.338Z,34.77
2018-09-06T18:56:01.525Z,42.70
2018-09-06T18:58:28.712Z,34.60
2018-09-06T19:00:55.893Z,40.77
2018-09-06T19:03:23.075Z,39.30
2018-09-06T19:05:50.302Z,37.73
2018-09-06T19:08:24.069Z,37.70
2018-09-06T19:10:51.270Z,35.93
2018-09-06T19:13:18.591Z,41.17
2018-09-06T19:15:45.816Z,40.57
2018-09-06T19:18:13.033Z,37.97
2018-09-06T19:20:40.235Z,40.83
2018-09-06T19:23:07.522Z,40.10
2018-09-06T19:25:34.766Z,37.90
2018-09-06T19:28:01.958Z,37.43
2018-09-06T19:30:29.162Z,36.47
2018-09-06T19:33:02.974Z,40.80
2018-09-06T19:35:30.423Z,39.80
2018-09-06T19:37:57.617Z,38.17
2018-09-06T19:40:24.787Z,42.60
2018-09-06T19:42:51.979Z,37.43
2018-09-06T19:45:19.155Z,40.23
2018-09-06T19:47:46.348Z,40.80
2018-09-06T19:50:13.524Z,41.17
2018-09-06T19:52:40.717Z,40.03
2018-09-06T19:55:07.888Z,40.30
2018-09-06T19:57:35.274Z,42.33
2018-09-06T20:00:02.493Z,42.80
2018-09-06T20:02:29.680Z,39.43
2018-09-06T20:04:57.499Z,40.33
2018-09-06T20:07:24.698Z,40.60
2018-09-06T20:09:52.775Z,47.10
2018-09-06T20:12:19.944Z,46.13
2018-09-06T20:14:47.144Z,43.47
2018-09-06T20:17:14.320Z,49.10
2018-09-06T20:19:41.516Z,45.47
2018-09-06T20:22:09.469Z,48.23
2018-09-06T20:24:36.668Z,48.87
2018-09-06T20:27:03.856Z,54.10
2018-09-06T20:29:31.046Z,52.60
2018-09-06T20:31:58.222Z,57.23
2018-09-06T20:34:25.419Z,52.77
2018-09-06T20:36:52.600Z,52.27
2018-09-06T20:39:19.813Z,56.60
2018-09-06T20:41:47.041Z,55.27
2018-09-06T20:44:14.209Z,59.10
2018-09-06T20:46:41.392Z,53.60
2018-09-06T20:49:08.589Z,64.23
2018-09-06T20:51:35.765Z,56.20
2018-09-06T20:54:02.984Z,57.40
2018-09-06T20:56:30.213Z,53.93
2018-09-06T20:58:57.394Z,60.50
2018-09-06T21:01:24.567Z,65.53
2018-09-06T21:03:51.769Z,69.00
2018-09-06T21:06:18.967Z,63.67
2018-09-06T21:08:46.182Z,58.00
2018-09-06T21:11:13.355Z,58.07
2018-09-06T21:13:40.589Z,67.33
2018-09-06T21:16:07.953Z,64.47
2018-09-06T21:18:35.153Z,67.93
2018-09-06T21:21:02.338Z,69.43
2018-09-06T21:23:29.560Z,64.90
2018-09-06T21:25:56.739Z,63.17
2018-09-06T21:28:23.929Z,70.13
2018-09-06T21:30:51.108Z,68.10
2018-09-06T21:33:18.303Z,63.70
2018-09-06T21:35:45.523Z,67.97
2018-09-06T21:38:12.705Z,72.17
2018-09-06T21:40:39.894Z,69.27
2018-09-06T21:43:07.191Z,77.23
2018-09-06T21:45:34.385Z,71.00
2018-09-06T21:48:01.558Z,64.50
2018-09-06T21:50:28.925Z,77.53
2018-09-06T21:52:56.109Z,66.57
2018-09-06T21:55:23.350Z,67.70
2018-09-06T21:57:50.524Z,77.23
2018-09-06T22:00:17.734Z,69.90
2018-09-06T22:02:50.311Z,65.77
2018-09-06T22:05:17.515Z,63.93
2018-09-06T22:07:44.709Z,71.67
2018-09-06T22:10:12.475Z,80.07
2018-09-06T22:12:39.754Z,76.87
2018-09-06T22:15:06.940Z,74.80
2018-09-06T22:17:34.136Z,67.73
2018-09-06T22:20:01.295Z,73.17
2018-09-06T22:22:28.579Z,76.87
2018-09-06T22:24:55.816Z,64.27
2018-09-06T22:27:23.047Z,73.10
2018-09-06T22:29:50.252Z,71.67
2018-09-06T22:32:17.419Z,66.57
2018-09-06T22:34:44.600Z,72.53
2018-09-06T22:37:11.780Z,68.63
2018-09-06T22:39:38.971Z,68.60
2018-09-06T22:42:06.148Z,76.67
2018-09-06T22:44:33.374Z,72.53
2018-09-06T22:47:00.555Z,79.00
2018-09-06T22:49:27.716Z,81.97
2018-09-06T22:51:54.894Z,79.07
2018-09-06T22:54:22.059Z,73.23
2018-09-06T22:56:49.271Z,78.13
2018-09-06T22:59:16.478Z,76.27
2018-09-06T23:04:23.038Z,77.13
2018-09-06T23:06:50.227Z,81.73
2018-09-06T23:09:17.426Z,82.30
2018-09-06T23:11:44.618Z,81.73
2018-09-06T23:14:11.784Z,81.17
2018-09-06T23:16:39.006Z,69.00
2018-09-06T23:19:06.190Z,70.60
2018-09-06T23:21:33.415Z,73.73
2018-09-06T23:24:00.617Z,71.20
2018-09-06T23:26:27.788Z,70.43
2018-09-06T23:28:54.976Z,71.03
2018-09-06T23:31:22.153Z,68.97
2018-09-06T23:33:49.335Z,71.80
2018-09-06T23:36:16.518Z,72.93
2018-09-06T23:38:43.710Z,63.43
2018-09-06T23:41:10.901Z,68.10
2018-09-06T23:43:38.071Z,61.10
2018-09-06T23:46:05.259Z,58.20
2018-09-06T23:48:32.428Z,65.40
2018-09-06T23:50:59.627Z,58.40
2018-09-06T23:53:27.700Z,58.97
2018-09-06T23:55:55.083Z,59.67
2018-09-06T23:58:22.270Z,54.80
